• Join FlightAware (Why Join?)
  • Login
  • US Flag 
02:05PM EDT


 

Airport Tracker/Info


-or-


 

Live Flight TrackerFlight Track Log ✈ SWA8500 ✈ 03-May-2013 ✈ KFNT - KBWI

Flight Track Log - Related Links

Times and Time Zones

All times are in EDT time to prevent confusion due to time zone crossing. See the SWA8500 flight status page for this flight to view local times or setup timezone preferences in your user account.

Time Position Orientation Groundspeed Altitude Reporting Facility
EDT Latitude Longitude Course Direction KTS MPH feet Rate Location/Type
06:22AM 42.9650 -83.6672 144° Southeast 212 244 4,600  Level Cleveland Center
06:23AM 42.9939 -83.5978 60° Northeast 229 264 9,200 3,840 Climbing Cleveland Center
06:24AM 43.0364 -83.4919 61° Northeast 245 282 12,400 3,840 Climbing Cleveland Center
06:25AM 43.0558 -83.3706 78° East 292 336 16,900 4,380 Climbing Cleveland Center
06:26AM 42.9786 -83.2906 143° Southeast 278 320 21,200 3,900 Climbing Cleveland Center
06:27AM 42.6254 -83.0374 144° Southeast  Level Estimated
06:27AM 42.8950 -83.2103 145° Southeast 307 353 24,700  Level Cleveland Center
06:28AM 42.8008 -83.1300 148° Southeast 352 405 27,600 2,820 Climbing Cleveland Center
06:29AM 42.7047 -83.0469 148° Southeast 404 465 30,400 2,580 Climbing Cleveland Center
06:30AM 42.6044 -82.9556 146° Southeast 425 489 32,800 1,560 Climbing Cleveland Center
06:31AM 42.5019 -82.8700 148° Southeast 425 489 33,600 600 Climbing Cleveland Center
06:32AM 42.4139 -82.7936 147° Southeast 425 489 34,000 180 Climbing Cleveland Center
06:33AM 42.3114 -82.7058 148° Southeast 425 489 34,000 540 Level Cleveland Center
06:34AM 42.2128 -82.6211 148° Southeast 425 489 35,100 960 Climbing Cleveland Center
06:35AM 42.1164 -82.5342 146° Southeast 425 489 36,000 420 Climbing Cleveland Center
06:36AM 42.0156 -82.4528 149° Southeast 425 489 36,000  Level Cleveland Center
06:37AM 41.9147 -82.3689 148° Southeast 425 489 36,000 480 Level Cleveland Center
06:38AM 41.8158 -82.2856 148° Southeast 425 489 37,000 1,440 Climbing Cleveland Center
06:39AM 41.7150 -82.2022 148° Southeast 425 489 38,900 960 Climbing Cleveland Center
06:40AM 41.6183 -82.1192 147° Southeast 420 483 39,000  Climbing Cleveland Center
06:41AM 41.5192 -82.0392 149° Southeast 420 483 39,000  Level Cleveland Center
06:42AM 41.4181 -81.9536 148° Southeast 426 490 39,000  Level Cleveland Center
06:43AM 41.3128 -81.8603 146° Southeast 426 490 39,000  Level Cleveland Center
06:44AM 41.2136 -81.7783 148° Southeast 426 490 39,000  Level Cleveland Center
06:45AM 41.1186 -81.7078 151° Southeast 426 490 39,000  Level Cleveland Center
06:46AM 41.0192 -81.6233 147° Southeast 426 490 39,000  Level Cleveland Center
06:47AM 40.9200 -81.5422 148° Southeast 420 483 39,000  Level Cleveland Center
06:48AM 40.8183 -81.4611 149° Southeast 420 483 39,000  Level Cleveland Center
06:49AM 40.7086 -81.3719 148° Southeast 426 490 39,000  Level Cleveland Center
06:50AM 40.6069 -81.2886 148° Southeast 426 490 39,000  Level Cleveland Center
06:51AM 40.5117 -81.2031 146° Southeast 426 490 39,000  Level Cleveland Center
06:52AM 40.4350 -81.0769 129° Southeast 426 490 39,000  Level Cleveland Center
06:53AM 40.3667 -80.9508 125° Southeast 426 490 39,000  Level Cleveland Center
06:54AM 40.2961 -80.8200 125° Southeast 437 503 39,000  Level Cleveland Center
06:55AM 40.2256 -80.6919 126° Southeast 437 503 39,000 -240 Level Cleveland Center
06:56AM 40.1608 -80.5750 126° Southeast 437 503 38,600 -600 Descending Cleveland Center
06:57AM 40.0900 -80.4447 125° Southeast 437 503 37,900 -900 Descending Cleveland Center
06:58AM 40.0189 -80.3175 126° Southeast 431 496 36,900 -1,020 Descending Cleveland Center
06:59AM 39.9519 -80.1958 126° Southeast 431 496 35,900 -1,140 Descending Cleveland Center
07:00AM 39.8806 -80.0717 127° Southeast 431 496 34,700 -1,560 Descending Cleveland Center
07:01AM 39.8381 -79.9261 111° Southeast 413 475 32,800 -1,920 Descending Cleveland Center
07:02AM 39.8081 -79.7750 104° East 425 489 30,900 -1,920 Descending Cleveland Center
07:03AM 39.7733 -79.6161 106° East 438 504 29,000 -1,980 Descending Cleveland Center
07:04AM 39.7558 -79.5242 104° East 443 510 27,800 -1,980 Descending Washington Center
07:05AM 39.7233 -79.3714 105° East 438 504 25,900 -1,440 Descending Washington Center
07:06AM 39.6903 -79.2186 106° East 438 504 25,000 -480 Descending Washington Center
07:07AM 39.6592 -79.0742 106° East 422 486 25,000 -600 Level Washington Center
07:08AM 39.6242 -78.9161 106° East 417 480 23,900 -1,080 Descending Washington Center
07:09AM 39.5925 -78.7747 106° East 417 480 22,900 -1,020 Descending Washington Center
07:10AM 39.5628 -78.6361 106° East 404 465 21,900 -1,020 Descending Washington Center
07:11AM 39.5325 -78.5056 107° East 393 452 20,900 -1,200 Descending Washington Center
07:12AM 39.5025 -78.3700 106° East 388 447 19,600 -1,740 Descending Washington Center
07:13AM 39.4761 -78.2478 106° East 377 434 17,500 -2,340 Descending Washington Center
07:14AM 39.4494 -78.1286 106° East 356 410 15,000 -1,260 Descending Washington Center
07:15AM 39.4331 -78.0072 100° East 344 396 15,000  Level Washington Center
07:16AM 39.4356 -77.8864 88° East 339 390 15,000  Level Washington Center
07:17AM 39.4358 -77.7628 90° East 334 384 15,000  Level Washington Center
07:18AM 39.4378 -77.6444 89° East 328 377 15,000 -960 Level Washington Center
07:19AM 39.4419 -77.5292 87° East 328 377 13,100 -1,920 Descending Washington Center
07:20AM 39.4436 -77.4136 89° East 328 377 11,200 -1,380 Descending Washington Center
07:20AM 39.4500 -77.3500 83° East 292 336 11,000 -180 Descending Potomac TRACON
07:21AM 39.4667 -77.2667 75° East 270 311 11,000 -300 Level Potomac TRACON
07:22AM 39.4667 -77.1667 90° East 268 308 10,400 -1,320 Descending Potomac TRACON
07:23AM 39.4500 -77.0667 102° East 276 318 8,400 -1,800 Descending Potomac TRACON
07:24AM 39.4333 -76.9833 104° East 264 304 7,000 -1,620 Descending Potomac TRACON
07:25AM 39.4333 -76.9000 90° East 257 296 5,500 -1,140 Descending Potomac TRACON
07:26AM 39.4167 -76.8167 104° East 229 264 4,900 -780 Descending Potomac TRACON
07:27AM 39.3667 -76.8333 194° South 211 243 4,100 -540 Descending Potomac TRACON
07:28AM 39.3000 -76.8500 191° South 202 232 3,900 -240 Descending Potomac TRACON
07:29AM 39.2500 -76.8333 166° South 173 199 3,700 -480 Descending Potomac TRACON
07:30AM 39.2167 -76.8167 159° South 129 148 3,000 -780 Descending Potomac TRACON
07:31AM 39.2000 -76.8000 142° Southeast 111 128 2,400 -960 Descending Potomac TRACON
07:32AM 39.1833 -76.7500 113° Southeast 115 132 1,200 -900 Descending Potomac TRACON
07:33AM 39.1833 -76.7167 90° East 114 131 600 -600 Descending Potomac TRACON
07:35AM 39.1667 -76.6667 142° Southeast  Level FlightAware Approximate
07:42AM 39.1754 -76.6683 142° Southeast  Level Estimated
07:43AM 39.1754 -76.6683 142° Southeast  Level Estimated